Time;durP1;ratioP1;P1;durP2;ratioP2;P2;SDS_P1;SDS_P2;PMS_P1;PMS_P2;Temp;Humidity;BMP_temperature;BMP_pressure;BME280_temperature;BME280_humidity;BME280_pressure;Samples;Min_cycle;Max_cycle;Signal;HPM_P1;HPM_P2
2022/03/02 00:02:01;;;;;;;38.83;22.50;;;5.30;99.90;;;;;;5079741;22;20052;-81
2022/03/02 00:04:27;;;;;;;40.22;21.75;;;4.70;99.90;;;;;;5081172;23;20063;-81
2022/03/02 00:06:53;;;;;;;41.40;21.98;;;5.00;99.90;;;;;;5069895;23;20052;-81
2022/03/02 00:09:19;;;;;;;40.67;22.80;;;4.80;99.90;;;;;;5084220;23;20105;-82
2022/03/02 00:11:45;;;;;;;41.25;22.38;;;5.10;99.90;;;;;;5075617;23;20452;-81
2022/03/02 00:14:11;;;;;;;37.05;21.40;;;5.30;99.90;;;;;;5076341;23;20072;-82
2022/03/02 00:16:36;;;;;;;39.85;22.05;;;4.70;99.90;;;;;;5069590;22;20053;-81
2022/03/02 00:19:04;;;;;;;43.45;23.27;;;5.30;99.90;;;;;;5076156;23;20045;-81
2022/03/02 00:21:30;;;;;;;39.28;21.92;;;4.90;99.90;;;;;;5076668;23;20489;-81
2022/03/02 00:23:55;;;;;;;44.47;22.63;;;5.00;99.90;;;;;;5075900;23;20106;-81
2022/03/02 00:26:24;;;;;;;44.85;24.00;;;4.90;99.90;;;;;;5085506;23;20394;-82
2022/03/02 00:28:50;;;;;;;48.33;24.30;;;5.20;99.90;;;;;;5081217;23;20091;-81
2022/03/02 00:31:16;;;;;;;39.63;21.70;;;5.00;99.90;;;;;;5075693;23;20075;-81
2022/03/02 00:33:42;;;;;;;42.97;22.58;;;4.80;99.90;;;;;;5075794;23;20708;-81
2022/03/02 00:36:08;;;;;;;42.25;22.35;;;4.70;99.90;;;;;;5076279;23;20056;-81
2022/03/02 00:38:34;;;;;;;38.75;21.30;;;4.70;99.90;;;;;;5076525;23;20052;-81
2022/03/02 00:40:59;;;;;;;39.33;22.58;;;4.70;99.90;;;;;;5076708;23;20514;-81
2022/03/02 00:43:26;;;;;;;39.95;22.20;;;5.10;99.90;;;;;;5088692;23;20048;-82
2022/03/02 00:45:52;;;;;;;42.47;22.92;;;4.70;99.90;;;;;;5084871;23;20053;-81
2022/03/02 00:48:18;;;;;;;40.03;21.75;;;5.20;99.90;;;;;;5092496;23;20060;-82
2022/03/02 00:50:44;;;;;;;41.78;22.50;;;4.70;99.90;;;;;;5074861;23;20045;-82
2022/03/02 00:53:10;;;;;;;40.40;22.25;;;4.70;99.90;;;;;;5069830;23;20072;-82
2022/03/02 00:55:36;;;;;;;42.50;22.08;;;4.70;99.90;;;;;;5076436;23;20047;-81
2022/03/02 00:58:04;;;;;;;41.90;23.38;;;4.70;99.90;;;;;;5076507;23;20048;-81
2022/03/02 01:00:30;;;;;;;41.10;22.67;;;4.90;99.90;;;;;;5075753;23;20052;-81
2022/03/02 01:02:56;;;;;;;43.10;22.88;;;4.60;99.90;;;;;;5076113;23;20085;-82
2022/03/02 01:05:23;;;;;;;40.55;22.90;;;4.60;99.90;;;;;;5084321;23;20045;-82
2022/03/02 01:07:49;;;;;;;43.03;23.48;;;4.70;99.90;;;;;;5082308;23;20098;-81
2022/03/02 01:10:18;;;;;;;39.03;22.40;;;5.00;99.90;;;;;;5078195;23;20123;-82
2022/03/02 01:12:44;;;;;;;44.83;22.48;;;4.60;99.90;;;;;;5082623;23;20041;-81
2022/03/02 01:15:11;;;;;;;43.83;23.00;;;4.60;99.90;;;;;;5084316;23;20048;-82
2022/03/02 01:17:37;;;;;;;42.83;23.52;;;5.00;99.90;;;;;;5084950;23;20478;-82
2022/03/02 01:20:06;;;;;;;41.70;22.55;;;4.70;99.90;;;;;;5068642;23;20049;-81
2022/03/02 01:22:32;;;;;;;41.17;21.80;;;4.60;99.90;;;;;;5075590;22;20041;-81
2022/03/02 01:24:57;;;;;;;43.58;23.55;;;4.50;99.90;;;;;;5075513;23;20057;-81
2022/03/02 01:27:24;;;;;;;46.33;23.37;;;4.60;99.90;;;;;;5114868;23;20119;-82
2022/03/02 01:29:53;;;;;;;46.65;23.63;;;4.60;99.90;;;;;;5073727;23;20144;-81
2022/03/02 01:32:19;;;;;;;40.97;22.48;;;4.60;99.90;;;;;;5076024;23;20201;-82
2022/03/02 01:34:46;;;;;;;45.10;23.33;;;4.70;99.90;;;;;;5074550;23;20048;-81
2022/03/02 01:37:18;;;;;;;44.83;23.50;;;4.50;99.90;;;;;;5075439;23;20049;-82
2022/03/02 01:39:44;;;;;;;44.00;23.90;;;4.50;99.90;;;;;;5085004;22;20121;-81
2022/03/02 01:42:10;;;;;;;41.70;23.52;;;5.00;99.90;;;;;;5088724;22;20068;-81
2022/03/02 01:44:37;;;;;;;42.00;23.08;;;4.60;99.90;;;;;;5086722;22;20036;-81
2022/03/02 01:47:05;;;;;;;45.55;23.02;;;4.90;99.90;;;;;;5064123;23;20072;-81
2022/03/02 01:49:31;;;;;;;42.10;22.75;;;4.70;99.90;;;;;;5060935;22;20521;-81
2022/03/02 01:51:57;;;;;;;43.58;22.52;;;4.50;99.90;;;;;;5081659;22;20052;-81
2022/03/02 01:54:23;;;;;;;43.47;22.08;;;4.50;99.90;;;;;;5067051;22;20580;-82
2022/03/02 01:56:49;;;;;;;42.53;22.55;;;4.90;99.90;;;;;;5081873;22;20049;-81
2022/03/02 01:59:22;;;;;;;42.88;22.67;;;4.50;99.90;;;;;;5058978;23;20506;-81
2022/03/02 02:01:48;;;;;;;42.88;22.52;;;4.50;99.90;;;;;;5080370;22;20048;-81
2022/03/02 02:04:21;;;;;;;43.70;23.20;;;5.20;99.90;;;;;;5069356;23;20068;-81
2022/03/02 02:06:46;;;;;;;41.00;22.17;;;4.50;99.90;;;;;;5080061;22;20084;-81
2022/03/02 02:09:19;;;;;;;39.85;23.27;;;4.50;99.90;;;;;;5078260;23;20067;-81
2022/03/02 02:11:45;;;;;;;43.28;23.02;;;4.50;99.90;;;;;;5102220;22;20044;-81
2022/03/02 02:14:11;;;;;;;40.75;22.70;;;4.50;99.90;;;;;;5100246;23;20061;-82
2022/03/02 02:16:38;;;;;;;47.30;23.48;;;4.40;99.90;;;;;;5068432;22;1219268;-81
2022/03/02 02:19:04;;;;;;;45.55;23.38;;;4.50;99.90;;;;;;5066602;23;20418;-81
2022/03/02 02:21:30;;;;;;;50.15;24.17;;;4.80;99.90;;;;;;5081404;28;20040;-81
2022/03/02 02:23:55;;;;;;;46.08;23.88;;;4.40;99.90;;;;;;5081800;23;20049;-81
2022/03/02 02:26:21;;;;;;;44.58;23.23;;;4.40;99.90;;;;;;5081655;22;20556;-81
2022/03/02 02:28:48;;;;;;;41.08;22.83;;;4.80;99.90;;;;;;5066436;23;20060;-81
2022/03/02 02:31:23;;;;;;;49.58;23.92;;;4.30;99.90;;;;;;5067825;23;20052;-81
2022/03/02 02:33:49;;;;;;;45.22;23.95;;;4.30;99.90;;;;;;5082487;23;20136;-81
2022/03/02 02:36:18;;;;;;;47.47;23.75;;;4.40;99.90;;;;;;5086211;23;20076;-82
2022/03/02 02:38:44;;;;;;;44.63;23.67;;;4.40;99.90;;;;;;5085169;23;20057;-81
2022/03/02 02:41:10;;;;;;;50.92;24.85;;;4.70;99.90;;;;;;5079591;23;20060;-82
2022/03/02 02:43:37;;;;;;;44.65;23.58;;;5.20;99.90;;;;;;5074449;23;20040;-81
2022/03/02 02:46:03;;;;;;;44.15;23.40;;;4.80;99.90;;;;;;5076469;23;20137;-81
2022/03/02 02:48:29;;;;;;;45.97;23.60;;;4.30;99.90;;;;;;5083306;23;20094;-81
2022/03/02 02:50:55;;;;;;;44.75;22.92;;;5.00;99.90;;;;;;5075208;23;20056;-81
2022/03/02 02:53:27;;;;;;;46.70;23.20;;;4.60;99.90;;;;;;5076589;23;20056;31
2022/03/02 02:55:54;;;;;;;47.15;23.00;;;4.30;99.90;;;;;;5040450;22;20053;-81
2022/03/02 02:58:19;;;;;;;43.75;23.42;;;4.30;99.90;;;;;;5067010;22;20505;-82
2022/03/02 03:00:47;;;;;;;45.72;23.55;;;4.30;99.90;;;;;;5042449;22;20042;-81
2022/03/02 03:03:19;;;;;;;42.55;22.92;;;4.30;99.90;;;;;;5047916;23;20045;-82
2022/03/02 03:05:45;;;;;;;40.80;22.60;;;4.40;99.90;;;;;;5037548;22;20061;-81
2022/03/02 03:08:12;;;;;;;46.33;23.13;;;4.90;99.90;;;;;;5054185;23;20053;-81
2022/03/02 03:10:40;;;;;;;45.75;22.83;;;5.00;99.90;;;;;;5057449;22;20052;-81
2022/03/02 03:13:07;;;;;;;44.88;23.33;;;4.80;99.90;;;;;;5050164;22;20526;-81
2022/03/02 03:15:34;;;;;;;45.10;22.40;;;4.70;99.90;;;;;;5052570;23;20186;-81
2022/03/02 03:18:01;;;;;;;46.00;23.02;;;4.30;99.90;;;;;;5066561;22;20053;-81
2022/03/02 03:20:27;;;;;;;46.85;23.33;;;4.60;99.90;;;;;;5076323;22;20045;-82
2022/03/02 03:22:54;;;;;;;44.13;22.92;;;4.60;99.90;;;;;;5036796;23;20107;-81
2022/03/02 03:25:21;;;;;;;45.38;22.75;;;5.00;99.90;;;;;;5059823;23;20052;-81
2022/03/02 03:27:47;;;;;;;43.30;23.17;;;4.40;99.90;;;;;;5047370;23;20049;-81
2022/03/02 03:30:21;;;;;;;45.47;22.70;;;4.40;99.90;;;;;;5055428;22;20407;-81
2022/03/02 03:32:48;;;;;;;49.85;24.20;;;5.20;99.90;;;;;;5039025;22;20053;-81
2022/03/02 03:35:19;;;;;;;45.90;23.67;;;4.40;99.90;;;;;;5085352;22;20133;-82
2022/03/02 03:37:45;;;;;;;49.75;23.48;;;4.60;99.90;;;;;;5042568;28;20399;-81
2022/03/02 03:40:13;;;;;;;43.30;22.77;;;4.40;99.90;;;;;;5051402;23;20052;-82
2022/03/02 03:42:39;;;;;;;51.25;24.98;;;4.40;99.90;;;;;;5066423;23;20056;-81
2022/03/02 03:45:05;;;;;;;42.95;22.60;;;4.40;99.90;;;;;;5066506;23;20567;-81
2022/03/02 03:47:31;;;;;;;46.03;23.00;;;4.40;99.90;;;;;;5066839;23;20045;-81
2022/03/02 03:49:57;;;;;;;51.47;23.98;;;4.40;99.90;;;;;;5092800;23;20114;-81
2022/03/02 03:52:25;;;;;;;48.08;25.23;;;4.40;99.90;;;;;;5048566;22;20049;-82
2022/03/02 03:54:51;;;;;;;47.55;24.40;;;4.40;99.90;;;;;;5050131;23;20097;-81
2022/03/02 03:57:16;;;;;;;50.05;25.67;;;4.70;99.90;;;;;;5067786;22;20049;-82
2022/03/02 03:59:42;;;;;;;45.33;24.10;;;4.40;99.90;;;;;;5055314;22;20042;-81
2022/03/02 04:02:08;;;;;;;45.65;23.08;;;4.60;99.90;;;;;;5061442;23;20514;-81
2022/03/02 04:04:34;;;;;;;43.88;23.98;;;4.30;99.90;;;;;;5057576;22;20127;-82
2022/03/02 04:06:59;;;;;;;45.38;23.00;;;4.30;99.90;;;;;;5040505;23;20076;-81
2022/03/02 04:09:25;;;;;;;48.88;23.90;;;4.90;99.90;;;;;;5045731;23;20096;-81
2022/03/02 04:11:51;;;;;;;45.20;24.00;;;4.30;99.90;;;;;;5040084;23;20064;-81
2022/03/02 04:14:20;;;;;;;50.13;24.30;;;4.30;99.90;;;;;;5040657;23;20053;-81
2022/03/02 04:16:46;;;;;;;50.33;24.60;;;4.30;99.90;;;;;;5065233;23;20076;-81
2022/03/02 04:19:11;;;;;;;47.95;24.88;;;4.60;99.90;;;;;;5069501;22;20056;-81
2022/03/02 04:21:37;;;;;;;48.00;24.05;;;4.50;99.90;;;;;;5077992;22;20053;-81
2022/03/02 04:24:03;;;;;;;50.10;23.73;;;4.50;99.90;;;;;;5077559;23;20048;-81
2022/03/02 04:26:29;;;;;;;49.45;25.70;;;4.10;99.90;;;;;;5083782;22;20067;-81
2022/03/02 04:28:54;;;;;;;50.17;23.92;;;4.30;99.90;;;;;;5069921;23;20388;-81
2022/03/02 04:31:23;;;;;;;47.83;24.52;;;4.00;99.90;;;;;;5085480;22;20056;31
2022/03/02 04:33:49;;;;;;;50.75;24.67;;;3.90;99.90;;;;;;5070151;22;20166;-81
2022/03/02 04:36:21;;;;;;;51.45;24.38;;;3.90;99.90;;;;;;5077330;22;20511;-81
2022/03/02 04:38:47;;;;;;;50.65;25.25;;;3.70;99.90;;;;;;5083895;22;20110;-81
2022/03/02 04:41:13;;;;;;;52.80;25.67;;;3.70;99.90;;;;;;5093876;23;20402;-81
2022/03/02 04:43:38;;;;;;;54.55;25.52;;;4.20;99.90;;;;;;5089496;23;20075;-81
2022/03/02 04:46:05;;;;;;;54.15;25.27;;;4.20;99.90;;;;;;5059668;22;20052;-81
2022/03/02 04:48:31;;;;;;;52.03;24.55;;;3.40;99.90;;;;;;5055277;22;20144;-81
2022/03/02 04:50:57;;;;;;;53.80;24.98;;;3.20;99.90;;;;;;5059213;22;20380;-81
2022/03/02 04:53:23;;;;;;;51.15;25.00;;;3.30;99.90;;;;;;5059068;22;20087;-81
2022/03/02 04:55:50;;;;;;;50.63;25.52;;;3.20;99.90;;;;;;5072941;22;20064;-81
2022/03/02 04:58:22;;;;;;;53.83;25.85;;;3.80;99.90;;;;;;5073067;22;20041;-81
2022/03/02 05:00:48;;;;;;;55.47;26.27;;;3.00;99.90;;;;;;5097275;22;20097;-81
2022/03/02 05:03:20;;;;;;;61.22;27.58;;;2.90;99.90;;;;;;5093578;22;20048;-81
2022/03/02 05:05:46;;;;;;;55.47;26.85;;;2.90;99.90;;;;;;5088907;22;20056;-81
2022/03/02 05:08:12;;;;;;;55.50;27.02;;;3.30;99.90;;;;;;5059300;23;20120;-81
2022/03/02 05:10:38;;;;;;;58.85;27.08;;;2.80;99.90;;;;;;5061975;22;20053;-81
2022/03/02 05:13:04;;;;;;;59.40;28.15;;;2.70;99.90;;;;;;5080389;22;20051;-81
2022/03/02 05:15:30;;;;;;;61.28;27.00;;;2.60;99.90;;;;;;5060867;22;20048;-81
2022/03/02 05:17:57;;;;;;;61.30;28.58;;;2.60;99.90;;;;;;5105952;22;20048;-81
2022/03/02 05:20:26;;;;;;;64.07;27.90;;;2.50;99.90;;;;;;5113958;22;20040;-82
2022/03/02 05:22:53;;;;;;;60.30;27.88;;;2.60;99.90;;;;;;5080557;22;20052;-81
2022/03/02 05:25:24;;;;;;;68.35;29.15;;;2.50;99.90;;;;;;5083414;22;20519;-81
2022/03/02 05:27:50;;;;;;;66.13;29.55;;;2.40;99.90;;;;;;5081172;22;20052;-81
2022/03/02 05:30:17;;;;;;;62.72;28.60;;;2.40;99.90;;;;;;5074564;23;20048;-81
2022/03/02 05:32:43;;;;;;;64.75;28.00;;;2.60;99.90;;;;;;5075144;23;20127;-81
2022/03/02 05:35:09;;;;;;;62.75;29.02;;;2.80;99.90;;;;;;5081963;23;20478;-81
2022/03/02 05:37:35;;;;;;;62.97;28.20;;;2.30;99.90;;;;;;5078301;22;20055;-81
2022/03/02 05:40:02;;;;;;;62.70;28.33;;;2.60;99.90;;;;;;5089206;22;20112;-81
2022/03/02 05:42:28;;;;;;;67.80;29.83;;;2.10;99.90;;;;;;5058545;23;20392;-81
2022/03/02 05:44:54;;;;;;;66.15;29.70;;;2.10;99.90;;;;;;5058571;23;20082;-81
2022/03/02 05:47:20;;;;;;;68.05;30.48;;;2.10;99.90;;;;;;5084274;22;20459;-81
2022/03/02 05:49:46;;;;;;;68.65;31.63;;;2.00;99.90;;;;;;5092697;23;20071;-81
2022/03/02 05:52:18;;;;;;;67.70;28.65;;;2.20;99.90;;;;;;5078496;22;20059;31
2022/03/02 05:54:44;;;;;;;70.55;31.30;;;1.90;99.90;;;;;;5074570;22;20039;-81
2022/03/02 05:57:10;;;;;;;69.57;29.50;;;1.90;99.90;;;;;;5079574;23;20059;-81
2022/03/02 05:59:36;;;;;;;70.18;30.05;;;1.80;99.90;;;;;;5087200;22;20403;-81
2022/03/02 06:02:02;;;;;;;70.63;30.25;;;1.80;99.90;;;;;;5092376;22;20051;-81
2022/03/02 06:04:27;;;;;;;72.50;31.05;;;1.70;99.90;;;;;;5077575;22;20049;-81
2022/03/02 06:06:53;;;;;;;72.10;30.00;;;1.70;99.90;;;;;;5084007;22;20071;-81
2022/03/02 06:09:26;;;;;;;73.28;32.13;;;2.50;99.90;;;;;;5059579;23;20495;-81
2022/03/02 06:11:52;;;;;;;73.20;31.02;;;1.70;99.90;;;;;;5083246;22;20423;-81
2022/03/02 06:14:22;;;;;;;75.30;32.33;;;1.60;99.90;;;;;;5086434;22;20063;-82
2022/03/02 06:16:48;;;;;;;76.13;32.70;;;1.60;99.90;;;;;;5106151;22;20437;-81
2022/03/02 06:19:17;;;;;;;75.72;32.33;;;1.60;99.90;;;;;;5080030;22;20063;-82
2022/03/02 06:21:44;;;;;;;78.07;31.73;;;1.60;99.90;;;;;;5080095;22;20510;-81
2022/03/02 06:24:10;;;;;;;79.97;31.90;;;1.60;99.90;;;;;;5058348;23;20048;-81
2022/03/02 06:26:36;;;;;;;72.13;31.30;;;1.60;99.90;;;;;;5069184;23;20445;-81
2022/03/02 06:29:02;;;;;;;75.35;31.88;;;1.50;99.90;;;;;;5064118;23;20040;-81
2022/03/02 06:31:28;;;;;;;76.10;32.13;;;1.50;99.90;;;;;;5066005;23;20044;-81
2022/03/02 06:33:54;;;;;;;77.85;32.47;;;1.50;99.90;;;;;;5090418;22;20097;-81
2022/03/02 06:36:23;;;;;;;80.13;32.42;;;1.40;99.90;;;;;;5101251;22;20444;-82
2022/03/02 06:38:49;;;;;;;76.80;32.45;;;1.40;99.90;;;;;;5086284;22;20112;-81
2022/03/02 06:41:39;;;;;;;84.75;33.47;;;1.40;99.90;;;;;;5108649;22;20133;-81
2022/03/02 06:44:14;;;;;;;80.82;32.58;;;1.40;99.90;;;;;;5110455;22;20047;-81
2022/03/02 06:46:55;;;;;;;79.95;33.55;;;1.40;99.90;;;;;;5040724;22;20082;-81
2022/03/02 06:49:34;;;;;;;78.88;33.53;;;1.40;99.90;;;;;;5106753;22;20052;-82
2022/03/02 06:52:02;;;;;;;82.60;34.13;;;1.80;99.90;;;;;;5104599;22;20035;-81
2022/03/02 06:54:31;;;;;;;84.88;34.25;;;1.40;99.90;;;;;;5092382;22;20042;-81
2022/03/02 06:57:00;;;;;;;83.60;34.35;;;2.40;99.90;;;;;;5085448;22;20056;-81
2022/03/02 06:59:44;;;;;;;83.07;34.08;;;1.90;99.90;;;;;;5071296;22;20112;-81
2022/03/02 07:02:15;;;;;;;84.55;33.80;;;1.60;99.90;;;;;;5078149;22;20386;-82
2022/03/02 07:04:43;;;;;;;87.32;34.55;;;1.60;99.90;;;;;;5065383;22;20051;-81
2022/03/02 07:07:10;;;;;;;83.40;33.65;;;1.60;99.90;;;;;;5072904;22;20166;-81
2022/03/02 07:09:36;;;;;;;75.65;31.98;;;1.60;99.90;;;;;;5085846;22;20049;-81
2022/03/02 07:12:05;;;;;;;78.93;31.27;;;1.80;99.90;;;;;;5079617;23;20060;-81
2022/03/02 07:14:33;;;;;;;74.63;32.78;;;1.70;99.90;;;;;;5091722;22;20185;-81
2022/03/02 07:17:00;;;;;;;80.57;33.78;;;1.70;99.90;;;;;;5099953;23;20101;-81
2022/03/02 07:19:27;;;;;;;74.60;31.63;;;1.80;99.90;;;;;;5060673;22;1270450;-81
2022/03/02 07:21:55;;;;;;;77.55;32.83;;;1.80;99.90;;;;;;5087249;22;20483;-81
2022/03/02 07:24:22;;;;;;;74.28;31.38;;;1.90;99.90;;;;;;5086060;23;20066;-81
2022/03/02 07:26:53;;;;;;;73.55;30.67;;;1.90;99.90;;;;;;5099979;23;20044;-81
2022/03/02 07:29:21;;;;;;;72.50;31.08;;;2.00;99.90;;;;;;5101899;22;20051;-81
2022/03/02 07:31:48;;;;;;;75.57;32.88;;;2.00;99.90;;;;;;5081998;23;21127;-81
2022/03/02 07:34:15;;;;;;;68.10;30.38;;;2.10;99.90;;;;;;5070503;22;20049;-82
2022/03/02 07:36:42;;;;;;;67.25;30.90;;;2.20;99.90;;;;;;5048031;28;20070;-82
2022/03/02 07:39:09;;;;;;;62.88;29.08;;;2.20;99.90;;;;;;5065689;28;20045;-82
2022/03/02 07:41:35;;;;;;;64.53;29.95;;;2.30;99.90;;;;;;5064810;28;20040;-82
2022/03/02 07:44:01;;;;;;;66.78;29.70;;;2.40;99.90;;;;;;5048039;28;20087;-82
2022/03/02 07:46:29;;;;;;;64.25;29.58;;;2.50;99.90;;;;;;5082588;28;20101;-82
2022/03/02 07:48:58;;;;;;;64.82;29.73;;;2.50;99.90;;;;;;5064407;28;20127;-82
2022/03/02 07:51:26;;;;;;;58.75;28.00;;;2.60;99.90;;;;;;5063404;28;20510;-82
2022/03/02 07:54:02;;;;;;;58.30;27.33;;;2.60;99.90;;;;;;5082820;28;20040;-82
2022/03/02 07:56:31;;;;;;;59.88;27.15;;;2.70;99.90;;;;;;5064679;28;20040;-82
2022/03/02 07:59:05;;;;;;;57.10;26.92;;;3.50;99.90;;;;;;5056293;28;20180;-82
2022/03/02 08:01:34;;;;;;;54.17;26.10;;;2.90;99.90;;;;;;5047996;28;20049;-82
2022/03/02 08:04:04;;;;;;;53.92;26.75;;;3.00;99.90;;;;;;5065013;28;20052;-82
2022/03/02 08:06:31;;;;;;;54.67;26.40;;;3.00;99.90;;;;;;5083161;28;20356;-82
2022/03/02 08:08:58;;;;;;;58.42;26.60;;;3.00;99.90;;;;;;5063809;28;20048;-82
2022/03/02 08:11:24;;;;;;;54.35;25.20;;;3.20;99.90;;;;;;5047367;28;20041;-82
2022/03/02 08:13:50;;;;;;;53.75;24.85;;;3.20;99.90;;;;;;5064035;28;20063;-82
2022/03/02 08:16:16;;;;;;;52.15;24.38;;;3.30;99.90;;;;;;5063791;28;20045;-82
2022/03/02 08:18:41;;;;;;;47.05;24.30;;;3.40;99.90;;;;;;5064557;28;20044;-82
2022/03/02 08:21:07;;;;;;;49.65;25.08;;;3.50;99.90;;;;;;5082358;28;20118;-82
2022/03/02 08:23:37;;;;;;;51.65;25.70;;;3.50;99.90;;;;;;5063871;28;20048;-82
2022/03/02 08:26:04;;;;;;;50.13;23.75;;;3.50;99.90;;;;;;5063887;28;20040;-82
2022/03/02 08:28:33;;;;;;;45.60;23.08;;;3.60;99.90;;;;;;5063179;28;20110;-82
2022/03/02 08:30:59;;;;;;;49.17;23.88;;;3.70;99.90;;;;;;5030828;28;20098;-82
2022/03/02 08:33:27;;;;;;;50.03;24.17;;;3.70;99.90;;;;;;5064061;28;20036;-82
2022/03/02 08:35:55;;;;;;;48.35;23.15;;;3.80;99.90;;;;;;5079822;28;20131;-82
2022/03/02 08:38:22;;;;;;;48.47;24.08;;;4.10;99.90;;;;;;5097457;28;20048;-82
2022/03/02 08:40:48;;;;;;;54.05;23.80;;;3.90;99.90;;;;;;5083798;28;20047;-82
2022/03/02 08:43:17;;;;;;;51.28;23.00;;;4.00;99.90;;;;;;5093125;28;20045;-83
2022/03/02 08:45:46;;;;;;;50.58;23.58;;;4.10;99.90;;;;;;5110769;28;20048;-82
2022/03/02 08:48:16;;;;;;;46.58;21.80;;;4.10;99.90;;;;;;5091496;28;20079;-82
2022/03/02 08:50:43;;;;;;;45.78;22.00;;;4.20;99.90;;;;;;5089032;28;20051;-82
2022/03/02 08:53:12;;;;;;;45.50;21.92;;;4.30;99.90;;;;;;5083814;28;20044;-82
2022/03/02 08:55:39;;;;;;;55.08;23.42;;;4.40;99.90;;;;;;5067018;28;20040;-82
2022/03/02 08:58:05;;;;;;;44.65;22.23;;;4.50;99.90;;;;;;5066904;28;20458;-82
2022/03/02 09:00:32;;;;;;;45.10;22.85;;;5.20;99.90;;;;;;5052636;28;20056;-82
2022/03/02 09:03:01;;;;;;;45.10;21.70;;;4.60;99.90;;;;;;5046075;28;20037;-82
2022/03/02 09:05:28;;;;;;;43.20;21.55;;;4.90;99.90;;;;;;5062184;28;20044;-82
2022/03/02 09:07:55;;;;;;;38.28;20.77;;;4.70;99.90;;;;;;5044175;28;20037;-82
2022/03/02 09:10:20;;;;;;;39.75;20.55;;;4.70;99.90;;;;;;5045383;28;20052;-83
2022/03/02 09:12:46;;;;;;;40.92;20.35;;;4.80;99.90;;;;;;5067343;28;20028;-82
2022/03/02 09:15:12;;;;;;;38.30;19.75;;;4.90;99.90;;;;;;5076709;28;20078;-83
2022/03/02 09:17:38;;;;;;;39.97;19.90;;;5.00;99.90;;;;;;5083423;28;20044;-82
2022/03/02 09:20:05;;;;;;;44.10;21.25;;;5.10;99.90;;;;;;5066988;28;20395;-82
2022/03/02 09:22:32;;;;;;;39.45;19.63;;;5.20;99.90;;;;;;5065858;28;20052;-83
2022/03/02 09:24:58;;;;;;;39.63;19.90;;;5.30;99.90;;;;;;5082204;28;20051;-83
2022/03/02 09:27:27;;;;;;;40.97;19.88;;;5.40;99.90;;;;;;5081530;28;20394;-83
2022/03/02 09:29:57;;;;;;;35.70;19.52;;;5.50;99.90;;;;;;5098728;28;20044;-82
2022/03/02 09:32:24;;;;;;;36.50;19.17;;;5.60;99.90;;;;;;5084107;28;20118;-82
2022/03/02 09:34:57;;;;;;;34.78;18.52;;;5.70;99.90;;;;;;5101437;28;20094;-82
2022/03/02 09:37:25;;;;;;;36.60;18.77;;;5.90;99.90;;;;;;5083675;28;20055;-82
2022/03/02 09:39:51;;;;;;;37.47;18.67;;;5.80;99.90;;;;;;5083180;28;20485;-82
2022/03/02 09:42:45;;;;;;;37.30;18.13;;;5.90;99.90;;;;;;5101578;28;20059;-82
2022/03/02 09:45:11;;;;;;;37.33;17.65;;;6.10;99.90;;;;;;5083387;28;20054;-83
2022/03/02 09:47:49;;;;;;;34.53;19.00;;;6.00;99.90;;;;;;5082805;28;20048;-82
2022/03/02 09:50:17;;;;;;;34.92;17.75;;;6.20;99.90;;;;;;5101641;28;20036;-82
2022/03/02 09:52:48;;;;;;;34.75;18.23;;;6.60;99.90;;;;;;5100375;28;20501;-82
2022/03/02 09:55:17;;;;;;;32.75;17.90;;;6.10;99.90;;;;;;5101615;28;20437;-82
2022/03/02 09:57:46;;;;;;;36.22;19.10;;;6.20;99.90;;;;;;5101063;28;20048;-82
2022/03/02 10:00:15;;;;;;;34.15;18.60;;;6.30;99.90;;;;;;5066515;28;20036;-82
2022/03/02 10:02:43;;;;;;;35.88;18.55;;;6.50;99.90;;;;;;5102406;28;20032;-82
2022/03/02 10:05:16;;;;;;;38.20;19.30;;;6.60;99.90;;;;;;5084971;28;20098;-82
2022/03/02 10:07:53;;;;;;;30.73;17.23;;;6.70;99.90;;;;;;5066171;28;20054;-82
2022/03/02 10:10:22;;;;;;;35.00;17.50;;;6.80;99.90;;;;;;5100601;28;20048;-82
2022/03/02 10:12:49;;;;;;;34.50;17.77;;;7.00;99.90;;;;;;5082343;28;20056;-82
2022/03/02 10:15:15;;;;;;;30.17;16.58;;;6.90;99.90;;;;;;5082188;28;20044;-84
2022/03/02 10:17:44;;;;;;;33.08;17.48;;;6.90;99.90;;;;;;5094302;22;20051;-81
2022/03/02 10:20:21;;;;;;;35.45;17.85;;;7.10;99.90;;;;;;5079497;23;20118;-81
2022/03/02 10:22:53;;;;;;;31.67;17.45;;;7.20;99.90;;;;;;5074714;23;20048;-81
2022/03/02 10:25:49;;;;;;;30.25;16.25;;;7.30;99.90;;;;;;5081964;23;20498;-81
2022/03/02 10:28:31;;;;;;;30.45;16.02;;;7.40;99.90;;;;;;5075015;23;20407;-81
2022/03/02 10:31:13;;;;;;;29.80;16.75;;;7.50;99.90;;;;;;5081699;22;20477;-82
2022/03/02 10:33:45;;;;;;;29.13;15.93;;;7.60;99.90;;;;;;5075755;23;20040;-81
2022/03/02 10:36:11;;;;;;;26.35;15.23;;;8.00;99.90;;;;;;5075974;23;20044;-81
2022/03/02 10:38:58;;;;;;;29.58;15.38;;;7.90;99.90;;;;;;5071482;23;20052;-80
2022/03/02 10:41:26;;;;;;;28.20;15.85;;;7.80;99.90;;;;;;5071774;23;20121;-82
2022/03/02 10:44:02;;;;;;;28.33;15.48;;;8.10;99.90;;;;;;5064632;28;20051;-81
2022/03/02 10:46:29;;;;;;;28.08;16.17;;;8.00;99.90;;;;;;5079464;22;20056;-82
2022/03/02 10:49:17;;;;;;;29.40;15.35;;;8.70;99.90;;;;;;5123770;23;20443;-82
2022/03/02 10:51:44;;;;;;;26.80;14.95;;;8.80;99.90;;;;;;5071503;23;20079;-81
2022/03/02 10:54:16;;;;;;;28.50;15.30;;;8.50;99.90;;;;;;5079447;23;20048;-82
2022/03/02 10:56:44;;;;;;;27.65;15.30;;;8.40;99.90;;;;;;5075090;23;20060;-82
2022/03/02 10:59:16;;;;;;;28.58;15.00;;;8.80;99.90;;;;;;5069127;28;20052;-82
2022/03/02 11:01:44;;;;;;;25.52;14.57;;;8.50;99.90;;;;;;5085271;23;20197;-81
2022/03/02 11:04:10;;;;;;;28.63;14.75;;;8.70;99.90;;;;;;5089160;28;20080;-82
2022/03/02 11:06:37;;;;;;;28.75;15.05;;;9.20;99.90;;;;;;5094966;22;20027;-82
2022/03/02 11:09:04;;;;;;;25.05;14.73;;;9.00;99.90;;;;;;5094642;23;20051;-81
2022/03/02 11:11:36;;;;;;;25.02;15.10;;;8.90;99.90;;;;;;5084853;22;20070;-82
2022/03/02 11:14:03;;;;;;;26.73;14.32;;;8.90;99.90;;;;;;5067768;23;20054;-81
2022/03/02 11:16:29;;;;;;;26.67;14.88;;;9.20;99.90;;;;;;5091077;22;20112;-82
2022/03/02 11:18:55;;;;;;;25.92;15.00;;;9.40;99.90;;;;;;5126347;22;20055;-81
2022/03/02 11:21:27;;;;;;;25.63;14.20;;;9.30;99.90;;;;;;5079646;23;20048;-81
2022/03/02 11:23:59;;;;;;;25.02;14.30;;;9.30;99.90;;;;;;5082226;22;20053;-81
2022/03/02 11:26:27;;;;;;;26.77;14.40;;;9.40;99.90;;;;;;5075634;22;20033;-82
2022/03/02 11:28:56;;;;;;;27.23;14.57;;;9.50;99.90;;;;;;5058996;23;20057;-81
2022/03/02 11:31:31;;;;;;;25.23;14.48;;;9.30;99.90;;;;;;5075461;22;20049;-82
2022/03/02 11:34:28;;;;;;;24.10;13.98;;;10.10;99.90;;;;;;5064698;23;20394;-81
2022/03/02 11:36:56;;;;;;;22.67;14.18;;;9.60;99.90;;;;;;5051441;23;20052;-84
2022/03/02 11:39:24;;;;;;;22.27;13.57;;;9.80;99.90;;;;;;5058233;28;20055;-86
2022/03/02 11:41:58;;;;;;;25.45;14.13;;;9.90;99.90;;;;;;5067433;28;20052;-85
2022/03/02 11:44:35;;;;;;;27.48;14.25;;;9.70;99.90;;;;;;5043881;28;20135;-86
2022/03/02 11:47:09;;;;;;;22.85;13.57;;;9.80;99.90;;;;;;5059083;28;20048;-85
2022/03/02 11:49:55;;;;;;;23.42;13.85;;;9.90;99.90;;;;;;5065921;28;20053;-86
2022/03/02 11:52:29;;;;;;;23.25;12.80;;;10.00;99.90;;;;;;5043315;28;20056;-85
2022/03/02 11:54:59;;;;;;;21.77;13.32;;;10.50;99.90;;;;;;5058794;28;20394;-85
2022/03/02 11:57:28;;;;;;;23.33;12.65;;;10.10;99.90;;;;;;5058968;28;20078;-84
2022/03/02 12:00:08;;;;;;;21.30;12.82;;;10.20;99.90;;;;;;5067053;28;20133;-86
2022/03/02 12:03:07;;;;;;;23.83;13.55;;;10.30;99.90;;;;;;5076700;28;20055;-84
2022/03/02 12:05:34;;;;;;;22.88;13.32;;;10.50;99.90;;;;;;5058485;28;20045;-86
2022/03/02 12:08:03;;;;;;;23.33;12.25;;;10.30;99.90;;;;;;5059037;28;20063;-84
2022/03/02 12:10:34;;;;;;;23.65;12.18;;;10.40;99.90;;;;;;5041251;28;20075;-85
2022/03/02 12:13:00;;;;;;;22.83;13.48;;;10.60;99.90;;;;;;5057420;28;20182;-84
2022/03/02 12:15:41;;;;;;;20.92;13.18;;;10.70;99.90;;;;;;5075864;28;20072;-84
2022/03/02 12:18:09;;;;;;;21.58;12.35;;;10.90;99.90;;;;;;5062055;28;20468;-84
2022/03/02 12:20:49;;;;;;;21.42;11.45;;;11.00;99.90;;;;;;5058034;28;20124;-85
2022/03/02 12:23:30;;;;;;;21.80;12.98;;;11.20;99.90;;;;;;5060120;28;20044;-81
2022/03/02 12:25:59;;;;;;;21.88;12.70;;;11.80;99.90;;;;;;5061665;23;20052;-81
2022/03/02 12:28:25;;;;;;;21.40;11.88;;;11.70;99.90;;;;;;5075983;22;20521;-82
2022/03/02 12:30:52;;;;;;;20.48;12.75;;;11.90;99.90;;;;;;5060736;22;20052;-81
2022/03/02 12:33:22;;;;;;;22.38;12.35;;;12.10;99.90;;;;;;5090723;22;20044;-81
2022/03/02 12:35:49;;;;;;;19.33;12.02;;;12.20;99.90;;;;;;5088167;22;20052;-82
2022/03/02 12:38:20;;;;;;;19.92;12.02;;;12.50;99.90;;;;;;5088917;22;20062;-82
2022/03/02 12:40:46;;;;;;;21.80;12.10;;;12.50;99.90;;;;;;5084698;23;20066;-82
2022/03/02 12:43:16;;;;;;;21.60;12.35;;;12.90;99.90;;;;;;5071666;23;20080;-81